National Weather Service Raw Text Product

Displaying AFOS PIL: TAFALO Received: 2018-01-12 17:42 UTC


052 
FTUS43 KDMX 121742
TAFALO
TAF
KALO 121742Z 1218/1318 34016KT P6SM FEW250
     FM130200 35009KT P6SM BKN210
     FM130500 35009KT P6SM SCT170=